This is the latest recevied weather packets stored in our database for station/object W8KJR. If no packets are shown the sender has not sent any weather packets the latest 10 day(s).
| Time | Temp. | Humidity | Pressure | Rain* | Wind** | Luminosity | Snow |
|---|---|---|---|---|---|---|---|
| 1788650675 | 22.78° C | 80% | 1013.7 hPa | 0 mm | - | - | - |
| 1788649774 | 23.33° C | 83% | 1013.5 hPa | 0 mm | - | - | - |
| 1788648872 | 23.33° C | 82% | 1013.6 hPa | 0 mm | - | - | - |
| 1788647968 | 23.89° C | 82% | 1013 hPa | 0 mm | - | - | - |
| 1788647066 | 23.89° C | 83% | 1013.3 hPa | 0 mm | - | - | - |
| 1788646166 | 23.89° C | 84% | 1013 hPa | 0 mm | - | - | - |
| 1788645262 | 24.44° C | 84% | 1012.9 hPa | 0 mm | - | - | - |
| 1788644359 | 24.44° C | 85% | 1013 hPa | 0 mm | - | - | - |
| 1788643458 | 24.44° C | 84% | 1012.9 hPa | 0 mm | - | - | - |
| 1788642554 | 25° C | 84% | 1012.7 hPa | 0 mm | - | - | - |
| 1788641655 | 25° C | 85% | 1012.7 hPa | 0 mm | - | - | - |
| 1788640755 | 25.56° C | 84% | 1012.8 hPa | 0 mm | - | - | - |
| 1788639853 | 26.11° C | 84% | 1012.9 hPa | 0 mm | - | - | - |
| 1788638949 | 26.67° C | 83% | 1013 hPa | 0 mm | - | - | - |
| 1788638044 | 26.67° C | 80% | 1012.7 hPa | 0 mm | - | - | - |
| 1788637139 | 27.22° C | 80% | 1012.8 hPa | 0 mm | - | - | - |
| 1788636237 | 26.67° C | 83% | 1012.9 hPa | 0 mm | - | - | - |
| 1788635335 | 27.22° C | 79% | 1012.9 hPa | 0 mm | - | - | - |
| 1788634434 | 27.22° C | 77% | 1013.2 hPa | 0 mm | - | - | - |
| 1788633531 | 28.33° C | 71% | 1013 hPa | 0 mm | - | - | - |
| 1788632627 | 27.22° C | 74% | 1013.2 hPa | 0 mm | - | - | - |
| 1788631721 | 27.78° C | 73% | 1013.3 hPa | 1.78 mm | - | - | - |
| 1788630817 | 27.78° C | 73% | 1013.4 hPa | 0 mm | - | - | - |
| 1788629916 | 27.78° C | 72% | 1013.4 hPa | 0 mm | - | - | - |
| 1788629015 | 26.67° C | 76% | 1013.5 hPa | 0 mm | - | - | - |
* Rain latest hour (hover to see other rain measurements)
** Current wind speed in m/s (hover to see current wind gust speed)